Time;durP1;ratioP1;P1;durP2;ratioP2;P2;SDS_P1;SDS_P2;PMS_P1;PMS_P2;Temp;Humidity;BMP_temperature;BMP_pressure;BME280_temperature;BME280_humidity;BME280_pressure;Samples;Min_cycle;Max_cycle;Signal;HPM_P1;HPM_P2
2022/03/13 00:00:48;;;;;;;18.23;11.93;;;5.70;91.10;;;;;;5069998;28;20134;-53
2022/03/13 00:03:15;;;;;;;17.17;11.82;;;5.80;91.20;;;;;;5070160;28;20076;-54
2022/03/13 00:05:44;;;;;;;18.63;11.65;;;5.70;91.10;;;;;;5070123;28;20032;-53
2022/03/13 00:08:18;;;;;;;24.55;11.55;;;6.40;91.20;;;;;;5069637;28;20048;-52
2022/03/13 00:10:47;;;;;;;16.20;11.57;;;5.70;91.10;;;;;;5069702;28;20052;-53
2022/03/13 00:13:19;;;;;;;18.88;12.60;;;5.70;91.10;;;;;;5069970;28;20044;-54
2022/03/13 00:15:45;;;;;;;19.10;12.18;;;5.50;91.00;;;;;;5051785;28;20052;-53
2022/03/13 00:18:12;;;;;;;22.00;11.65;;;5.70;91.10;;;;;;5069806;28;20048;-53
2022/03/13 00:20:38;;;;;;;18.25;11.82;;;5.50;91.00;;;;;;5069297;28;20098;-51
2022/03/13 00:23:06;;;;;;;19.55;12.52;;;5.80;91.10;;;;;;5069508;28;20406;-54
2022/03/13 00:25:33;;;;;;;16.65;11.88;;;5.60;91.10;;;;;;5069694;28;20044;-51
2022/03/13 00:27:58;;;;;;;20.25;12.10;;;5.60;91.20;;;;;;5069434;28;20056;-55
2022/03/13 00:30:24;;;;;;;20.27;12.05;;;6.50;91.50;;;;;;5069504;28;20040;-52
2022/03/13 00:32:50;;;;;;;17.48;12.63;;;5.50;91.40;;;;;;5069200;28;20072;-51
2022/03/13 00:35:16;;;;;;;16.27;11.73;;;5.40;91.40;;;;;;5069734;28;20047;-53
2022/03/13 00:37:42;;;;;;;18.00;12.38;;;5.40;91.50;;;;;;5069318;28;20040;-54
2022/03/13 00:40:10;;;;;;;19.23;12.48;;;5.80;91.70;;;;;;5069243;28;20115;-52
2022/03/13 00:42:37;;;;;;;20.00;11.90;;;5.40;91.60;;;;;;5051532;28;20544;-50
2022/03/13 00:45:03;;;;;;;18.73;12.57;;;5.30;91.70;;;;;;5069014;28;20056;-50
2022/03/13 00:47:28;;;;;;;19.17;12.82;;;5.30;91.80;;;;;;5051125;28;20050;-53
2022/03/13 00:49:54;;;;;;;20.23;13.63;;;5.30;91.90;;;;;;5068981;28;20474;-51
2022/03/13 00:52:20;;;;;;;19.63;12.93;;;6.10;92.30;;;;;;5069341;28;20041;-54
2022/03/13 00:54:46;;;;;;;19.08;12.43;;;5.30;92.30;;;;;;5069475;28;20067;-52
2022/03/13 00:57:12;;;;;;;17.83;11.65;;;5.90;92.50;;;;;;5069666;28;20049;-53
2022/03/13 00:59:37;;;;;;;20.17;13.30;;;5.80;92.40;;;;;;5068916;28;20080;-53
2022/03/13 01:02:04;;;;;;;25.73;13.77;;;5.90;92.40;;;;;;5068748;28;20059;-53
2022/03/13 01:04:30;;;;;;;21.38;13.75;;;5.50;92.30;;;;;;5069149;28;20048;-52
2022/03/13 01:06:56;;;;;;;21.55;13.15;;;8.00;92.80;;;;;;5068502;28;20094;-52
2022/03/13 01:09:21;;;;;;;20.40;12.73;;;5.30;92.20;;;;;;5069286;28;20032;-51
2022/03/13 01:11:47;;;;;;;18.38;11.40;;;5.60;92.20;;;;;;5069053;28;20040;-53
2022/03/13 01:14:15;;;;;;;18.77;12.38;;;5.70;92.20;;;;;;5068961;28;20072;-51
2022/03/13 01:16:41;;;;;;;22.08;12.82;;;5.70;92.10;;;;;;5068689;28;20040;-54
2022/03/13 01:19:08;;;;;;;19.63;13.63;;;5.70;92.10;;;;;;5068596;28;20052;-49
2022/03/13 01:21:38;;;;;;;18.33;12.07;;;5.60;92.10;;;;;;5068834;28;20498;-54
2022/03/13 01:24:10;;;;;;;19.67;13.50;;;5.70;92.10;;;;;;5068843;28;20457;-51
2022/03/13 01:26:37;;;;;;;19.55;13.27;;;5.80;92.20;;;;;;5069116;28;20047;-51
2022/03/13 01:29:14;;;;;;;19.85;11.98;;;6.20;92.20;;;;;;5068573;28;20173;-54
2022/03/13 01:31:45;;;;;;;18.80;12.60;;;5.70;92.20;;;;;;5068790;28;20051;-52
2022/03/13 01:34:12;;;;;;;20.15;13.80;;;6.70;92.40;;;;;;5069215;28;20059;-51
2022/03/13 01:36:39;;;;;;;21.00;14.88;;;5.70;92.10;;;;;;5069352;28;20079;-52
2022/03/13 01:39:09;;;;;;;22.65;13.18;;;5.80;92.20;;;;;;5068395;28;20557;-51
2022/03/13 01:41:35;;;;;;;24.40;13.60;;;5.80;92.20;;;;;;5051007;28;20050;-51
2022/03/13 01:44:01;;;;;;;19.65;12.70;;;5.80;92.20;;;;;;5068199;28;20784;-51
2022/03/13 01:46:28;;;;;;;18.05;12.48;;;6.30;92.30;;;;;;5068470;28;20052;-51
2022/03/13 01:49:03;;;;;;;19.55;13.05;;;5.80;92.20;;;;;;5068662;28;20041;-52
2022/03/13 01:51:30;;;;;;;19.23;13.50;;;5.80;92.50;;;;;;5069163;28;20041;-52
2022/03/13 01:53:58;;;;;;;20.80;13.50;;;5.70;92.20;;;;;;5068655;28;20469;-52
2022/03/13 01:56:24;;;;;;;17.55;12.65;;;5.70;92.20;;;;;;5068609;28;20051;-54
2022/03/13 01:58:54;;;;;;;21.27;12.90;;;5.70;92.40;;;;;;5068465;28;20484;-53
2022/03/13 02:01:21;;;;;;;20.52;13.60;;;5.60;92.40;;;;;;5068645;28;20040;-54
2022/03/13 02:03:48;;;;;;;21.50;14.38;;;5.50;92.50;;;;;;5068632;28;20086;-53
2022/03/13 02:06:14;;;;;;;19.65;13.50;;;5.60;92.50;;;;;;5068555;28;20045;-54
2022/03/13 02:08:40;;;;;;;19.40;13.15;;;5.60;92.70;;;;;;5068577;28;20075;-54
2022/03/13 02:11:06;;;;;;;24.73;13.45;;;5.60;92.70;;;;;;5068474;28;20068;-53
2022/03/13 02:13:34;;;;;;;22.40;13.32;;;5.40;92.80;;;;;;5068561;28;20527;-54
2022/03/13 02:16:00;;;;;;;18.98;13.30;;;5.50;92.90;;;;;;5068373;28;20459;-52
2022/03/13 02:18:26;;;;;;;22.52;13.40;;;5.50;93.00;;;;;;5069333;28;20049;-50
2022/03/13 02:20:52;;;;;;;19.58;14.00;;;5.50;93.00;;;;;;5072275;28;20044;-53
2022/03/13 02:23:19;;;;;;;19.70;13.35;;;5.50;93.10;;;;;;5071451;28;20498;-51
2022/03/13 02:25:56;;;;;;;20.15;13.48;;;5.50;93.10;;;;;;5071718;28;20498;-54
2022/03/13 02:28:25;;;;;;;21.08;13.95;;;5.50;93.20;;;;;;5071942;28;20052;-53
2022/03/13 02:30:53;;;;;;;19.90;13.32;;;5.40;93.20;;;;;;5071957;28;20051;-51
2022/03/13 02:33:22;;;;;;;20.13;13.18;;;6.50;93.60;;;;;;5071534;28;20040;-52
2022/03/13 02:35:59;;;;;;;18.35;12.65;;;5.40;93.30;;;;;;5072009;28;20075;-52
2022/03/13 02:38:27;;;;;;;20.05;13.38;;;5.40;93.40;;;;;;5071834;28;20481;-53
2022/03/13 02:40:54;;;;;;;20.13;13.10;;;5.40;93.40;;;;;;5071661;28;20483;-53
2022/03/13 02:43:20;;;;;;;19.88;13.38;;;5.40;93.40;;;;;;5071196;28;20052;-53
2022/03/13 02:45:46;;;;;;;19.48;13.60;;;5.40;93.40;;;;;;5071382;28;20462;-53
2022/03/13 02:48:12;;;;;;;22.25;14.13;;;5.20;93.30;;;;;;5071047;28;20084;-50
2022/03/13 02:50:39;;;;;;;20.08;13.50;;;5.30;93.40;;;;;;5071766;28;20151;-53
2022/03/13 02:53:06;;;;;;;19.67;12.63;;;5.40;93.40;;;;;;5071422;28;20156;-53
2022/03/13 02:55:32;;;;;;;21.65;13.05;;;5.30;93.40;;;;;;5071330;28;20073;-54
2022/03/13 02:57:58;;;;;;;20.95;13.75;;;5.30;93.60;;;;;;5071450;28;20036;-51
2022/03/13 03:00:47;;;;;;;22.92;14.43;;;5.30;93.40;;;;;;5071426;28;20044;-54
2022/03/13 03:03:15;;;;;;;20.77;13.13;;;5.20;93.40;;;;;;5071168;28;20512;-51
2022/03/13 03:05:40;;;;;;;18.73;12.82;;;5.00;93.30;;;;;;5071421;28;20548;-53
2022/03/13 03:08:07;;;;;;;22.23;13.50;;;5.00;93.30;;;;;;5071020;28;20124;-52
2022/03/13 03:10:34;;;;;;;19.13;13.48;;;5.20;93.40;;;;;;5071042;28;20037;-53
2022/03/13 03:13:00;;;;;;;21.05;13.18;;;5.10;93.40;;;;;;5071222;28;20040;-51
2022/03/13 03:15:26;;;;;;;23.20;14.13;;;5.10;93.40;;;;;;5070933;28;20090;-54
2022/03/13 03:17:53;;;;;;;21.95;13.02;;;5.10;93.30;;;;;;5071056;28;20528;-52
2022/03/13 03:20:19;;;;;;;20.70;14.13;;;5.00;93.40;;;;;;5070531;28;20051;-53
2022/03/13 03:22:47;;;;;;;23.50;13.57;;;5.00;93.30;;;;;;5070437;28;20044;-52
2022/03/13 03:25:13;;;;;;;24.70;13.13;;;6.10;93.60;;;;;;5070672;28;20332;-50
2022/03/13 03:27:42;;;;;;;20.20;14.05;;;5.00;93.30;;;;;;5070998;28;20028;-52
2022/03/13 03:30:09;;;;;;;21.05;13.05;;;5.00;93.30;;;;;;5051789;28;20094;-53
2022/03/13 03:32:35;;;;;;;20.00;13.05;;;5.00;93.30;;;;;;5070793;28;20080;-52
2022/03/13 03:35:00;;;;;;;18.33;13.10;;;4.90;93.20;;;;;;5070528;28;20075;-53
2022/03/13 03:37:26;;;;;;;21.00;13.73;;;5.00;93.30;;;;;;5052355;28;20048;-53
2022/03/13 03:39:52;;;;;;;22.35;13.98;;;4.70;93.50;;;;;;5070520;28;20047;-50
2022/03/13 03:42:18;;;;;;;21.15;13.48;;;4.80;93.40;;;;;;5070243;28;20047;-55
2022/03/13 03:44:43;;;;;;;20.83;13.35;;;5.10;93.50;;;;;;5070456;28;20084;-53
2022/03/13 03:47:09;;;;;;;18.63;13.30;;;4.70;93.50;;;;;;5070467;28;20037;-53
2022/03/13 03:49:35;;;;;;;22.40;13.85;;;4.70;93.50;;;;;;5070376;28;20055;-55
2022/03/13 03:52:01;;;;;;;22.20;13.23;;;4.40;93.40;;;;;;5070219;28;20455;-51
2022/03/13 03:54:26;;;;;;;20.02;13.82;;;4.70;93.40;;;;;;5070054;28;20116;-50
2022/03/13 03:56:52;;;;;;;18.02;12.35;;;5.10;93.50;;;;;;5070097;28;20079;-54
2022/03/13 03:59:20;;;;;;;22.73;14.63;;;4.60;93.50;;;;;;5052126;28;20047;-52
2022/03/13 04:01:45;;;;;;;21.90;14.45;;;4.60;93.40;;;;;;5070200;28;20044;-51
2022/03/13 04:04:11;;;;;;;22.25;13.38;;;4.50;93.50;;;;;;5069875;28;20451;-50
2022/03/13 04:06:38;;;;;;;26.73;13.98;;;4.40;93.50;;;;;;5070108;28;20178;-53
2022/03/13 04:09:05;;;;;;;18.73;13.20;;;5.40;93.80;;;;;;5070016;28;20086;-52
2022/03/13 04:11:31;;;;;;;21.55;13.20;;;4.20;93.60;;;;;;5070058;28;20047;-53
2022/03/13 04:13:57;;;;;;;22.23;14.25;;;4.10;93.70;;;;;;5069894;28;20045;-54
2022/03/13 04:16:22;;;;;;;23.85;14.38;;;4.10;93.80;;;;;;5069323;28;20056;-51
2022/03/13 04:18:48;;;;;;;20.80;12.80;;;4.00;93.80;;;;;;5069723;28;20119;-52
2022/03/13 04:21:15;;;;;;;19.90;12.98;;;4.60;94.00;;;;;;5069391;28;20051;-52
2022/03/13 04:23:40;;;;;;;21.00;12.80;;;4.20;93.90;;;;;;5069929;28;20048;-53
2022/03/13 04:26:06;;;;;;;24.40;13.68;;;4.20;93.90;;;;;;5069787;28;20063;-53
2022/03/13 04:28:33;;;;;;;20.92;12.45;;;4.20;93.90;;;;;;5069435;28;20764;-52
2022/03/13 04:31:00;;;;;;;20.55;12.82;;;4.30;94.10;;;;;;5069425;28;20053;-51
2022/03/13 04:33:33;;;;;;;19.77;13.07;;;4.20;93.90;;;;;;5069400;28;20474;-52
2022/03/13 04:36:00;;;;;;;22.38;12.57;;;4.10;94.20;;;;;;5069447;28;20052;-51
2022/03/13 04:38:27;;;;;;;22.35;13.95;;;3.80;93.90;;;;;;5069238;28;20052;-50
2022/03/13 04:40:54;;;;;;;22.77;14.38;;;3.90;94.10;;;;;;5068660;28;20040;-50
2022/03/13 04:43:21;;;;;;;22.67;13.15;;;4.00;94.40;;;;;;5069297;28;20037;-53
2022/03/13 04:45:48;;;;;;;23.60;13.10;;;3.80;94.50;;;;;;5069527;28;20111;-50
2022/03/13 04:48:14;;;;;;;21.08;13.27;;;3.70;94.40;;;;;;5069508;28;20387;-53
2022/03/13 04:50:40;;;;;;;19.67;12.95;;;3.60;94.70;;;;;;5069243;28;20103;-49
2022/03/13 04:53:06;;;;;;;21.70;13.70;;;3.40;94.80;;;;;;5069501;28;20538;-53
2022/03/13 04:55:32;;;;;;;22.15;13.35;;;3.50;95.10;;;;;;5069165;28;20041;-53
2022/03/13 04:57:58;;;;;;;18.65;12.57;;;3.60;95.20;;;;;;5069388;28;20040;-52
2022/03/13 05:00:27;;;;;;;17.80;12.65;;;3.60;95.20;;;;;;5069126;28;20464;-52
2022/03/13 05:02:54;;;;;;;21.23;13.63;;;3.40;95.10;;;;;;5069344;28;20051;-53
2022/03/13 05:05:21;;;;;;;20.90;13.30;;;3.60;95.20;;;;;;5069059;28;20040;-50
2022/03/13 05:07:47;;;;;;;20.98;12.32;;;3.40;95.10;;;;;;5050886;28;20048;-53
2022/03/13 05:10:13;;;;;;;22.83;13.45;;;3.40;95.00;;;;;;5069093;28;20047;-53
2022/03/13 05:12:39;;;;;;;21.08;12.80;;;3.40;95.10;;;;;;5068959;28;20036;-52
2022/03/13 05:15:05;;;;;;;23.20;12.73;;;3.20;95.10;;;;;;5069114;28;20407;-52
2022/03/13 05:17:31;;;;;;;19.80;13.00;;;3.30;95.20;;;;;;5068991;28;20051;-52
2022/03/13 05:19:57;;;;;;;20.40;12.80;;;3.30;95.40;;;;;;5068984;28;20121;-51
2022/03/13 05:22:23;;;;;;;17.90;12.30;;;3.30;95.40;;;;;;5068937;28;20592;-52
2022/03/13 05:24:48;;;;;;;21.02;13.35;;;3.30;95.30;;;;;;5069059;28;20497;-52
2022/03/13 05:27:14;;;;;;;20.65;13.43;;;3.20;95.20;;;;;;5069183;28;20390;-53
2022/03/13 05:29:39;;;;;;;21.92;13.65;;;3.10;95.30;;;;;;5068823;28;20063;-49
2022/03/13 05:32:06;;;;;;;20.58;13.07;;;3.00;95.20;;;;;;5069212;28;20068;-51
2022/03/13 05:34:31;;;;;;;21.02;13.60;;;3.00;95.40;;;;;;5050719;28;20156;-50
2022/03/13 05:36:57;;;;;;;19.27;13.00;;;2.90;95.50;;;;;;5069395;28;20516;-50
2022/03/13 05:39:23;;;;;;;21.30;13.43;;;2.90;95.70;;;;;;5068819;28;20063;-51
2022/03/13 05:41:48;;;;;;;20.52;12.80;;;2.90;95.80;;;;;;5068643;28;20040;-52
2022/03/13 05:44:15;;;;;;;18.33;12.38;;;2.80;95.90;;;;;;5068893;28;20056;-53
2022/03/13 05:46:41;;;;;;;21.08;13.32;;;2.80;95.90;;;;;;5068363;28;20521;-53
2022/03/13 05:49:08;;;;;;;21.33;12.82;;;2.80;96.10;;;;;;5068992;28;20311;-50
2022/03/13 05:51:37;;;;;;;23.33;13.25;;;2.80;96.10;;;;;;5068218;28;20044;-52
2022/03/13 05:54:04;;;;;;;23.67;14.20;;;2.80;96.30;;;;;;5072303;28;20144;-53
2022/03/13 05:56:30;;;;;;;20.23;12.00;;;2.70;96.20;;;;;;5072342;28;20037;-50
2022/03/13 05:58:56;;;;;;;23.30;12.88;;;2.60;96.30;;;;;;5072839;28;20044;-50
2022/03/13 06:01:22;;;;;;;22.35;14.38;;;2.90;96.30;;;;;;5072535;28;20186;-53
2022/03/13 06:03:47;;;;;;;18.35;12.55;;;3.10;96.20;;;;;;5072170;28;20048;-50
2022/03/13 06:06:14;;;;;;;19.70;12.43;;;3.40;96.00;;;;;;5072637;28;20526;-49
2022/03/13 06:08:41;;;;;;;18.15;11.65;;;3.70;95.50;;;;;;5071819;28;20479;-54
2022/03/13 06:11:06;;;;;;;18.00;11.55;;;4.20;95.10;;;;;;5072338;28;20040;-50
2022/03/13 06:13:32;;;;;;;16.35;11.20;;;4.60;94.60;;;;;;5072183;28;20045;-54
2022/03/13 06:15:58;;;;;;;18.83;11.73;;;5.20;93.40;;;;;;5072198;28;20155;-53
2022/03/13 06:18:26;;;;;;;18.98;11.27;;;5.60;93.00;;;;;;5072223;28;20090;-50
2022/03/13 06:20:52;;;;;;;18.85;11.30;;;7.00;92.50;;;;;;5071843;28;20048;-52
2022/03/13 06:23:18;;;;;;;15.40;10.40;;;6.40;91.80;;;;;;5072587;28;20048;-53
2022/03/13 06:25:43;;;;;;;17.20;11.02;;;6.70;91.30;;;;;;5071893;28;20036;-53
2022/03/13 06:28:13;;;;;;;18.40;10.85;;;6.80;90.70;;;;;;5071955;28;20064;-53
2022/03/13 06:30:38;;;;;;;15.60;10.05;;;6.80;90.30;;;;;;5071505;28;20063;-53
2022/03/13 06:33:04;;;;;;;17.83;11.75;;;6.90;90.20;;;;;;5071366;28;20466;-50
2022/03/13 06:35:32;;;;;;;16.38;11.15;;;7.10;89.40;;;;;;5071614;28;20037;-53
2022/03/13 06:37:58;;;;;;;18.00;10.75;;;6.70;88.40;;;;;;5071742;28;20176;-53
2022/03/13 06:40:25;;;;;;;15.02;10.57;;;6.50;88.50;;;;;;5071723;28;20044;-53
2022/03/13 06:42:53;;;;;;;20.00;10.82;;;6.40;88.60;;;;;;5071393;28;20336;-52
2022/03/13 06:45:19;;;;;;;15.57;10.65;;;6.00;88.80;;;;;;5071470;28;20060;-53
2022/03/13 06:47:47;;;;;;;14.52;10.15;;;7.20;89.20;;;;;;5071790;28;20046;-52
2022/03/13 06:50:15;;;;;;;17.27;10.85;;;5.90;88.40;;;;;;5071732;28;20090;-52
2022/03/13 06:52:41;;;;;;;16.38;9.90;;;6.00;88.30;;;;;;5071496;28;20098;-53
2022/03/13 06:55:08;;;;;;;15.63;10.05;;;7.10;88.30;;;;;;5071195;28;20067;-52
2022/03/13 06:57:33;;;;;;;21.52;11.20;;;6.10;87.50;;;;;;5071421;28;20067;-54
2022/03/13 07:00:00;;;;;;;17.15;10.38;;;6.00;87.40;;;;;;5071502;28;20483;-54
2022/03/13 07:02:26;;;;;;;13.75;9.55;;;6.00;87.20;;;;;;5071098;28;20123;-52
2022/03/13 07:04:52;;;;;;;16.88;10.43;;;6.10;87.50;;;;;;5070199;28;20119;-53
2022/03/13 07:07:17;;;;;;;15.38;10.40;;;6.30;87.80;;;;;;5070969;28;20087;-55
2022/03/13 07:09:43;;;;;;;18.92;10.48;;;6.70;88.20;;;;;;5071068;28;20040;-53
2022/03/13 07:12:11;;;;;;;16.08;10.07;;;7.20;88.30;;;;;;5071481;28;20611;-55
2022/03/13 07:14:38;;;;;;;15.93;10.82;;;6.70;87.80;;;;;;5071169;28;20115;-51
2022/03/13 07:17:04;;;;;;;15.85;10.23;;;7.60;87.90;;;;;;5071092;28;20040;-54
2022/03/13 07:19:29;;;;;;;17.50;10.60;;;6.70;87.40;;;;;;5071110;28;20521;-53
2022/03/13 07:21:55;;;;;;;15.60;10.48;;;6.80;87.50;;;;;;5071033;28;20062;-53
2022/03/13 07:24:21;;;;;;;18.58;10.15;;;6.90;87.50;;;;;;5052795;28;20044;-53
2022/03/13 07:26:47;;;;;;;14.73;9.45;;;7.20;87.40;;;;;;5070425;28;20040;-51
2022/03/13 07:29:12;;;;;;;18.33;10.75;;;7.90;87.40;;;;;;5070688;28;20080;-53
2022/03/13 07:31:38;;;;;;;16.27;10.38;;;6.80;85.40;;;;;;5070639;28;20044;-53
2022/03/13 07:34:04;;;;;;;15.15;9.50;;;7.10;85.60;;;;;;5070766;28;20048;-52
2022/03/13 07:36:31;;;;;;;16.50;10.98;;;7.10;85.10;;;;;;5070482;28;20563;-53
2022/03/13 07:38:57;;;;;;;13.98;9.45;;;7.20;84.80;;;;;;5070139;28;20051;-53
2022/03/13 07:41:22;;;;;;;15.95;9.93;;;7.20;84.20;;;;;;5070529;28;20048;-54
2022/03/13 07:43:48;;;;;;;14.00;9.77;;;7.20;84.30;;;;;;5070628;28;20044;-50
2022/03/13 07:46:13;;;;;;;15.68;9.85;;;8.50;85.00;;;;;;5070181;28;20045;-54
2022/03/13 07:48:40;;;;;;;15.05;9.20;;;7.40;83.90;;;;;;5070221;28;20084;-54
2022/03/13 07:51:07;;;;;;;19.13;9.82;;;8.30;84.10;;;;;;5070737;28;20040;-53
2022/03/13 07:53:33;;;;;;;16.08;9.40;;;7.40;83.10;;;;;;5070201;28;20506;-53
2022/03/13 07:55:59;;;;;;;13.85;9.73;;;7.40;83.10;;;;;;5070133;28;20076;-55
2022/03/13 07:58:24;;;;;;;14.85;9.55;;;7.50;82.60;;;;;;5070497;28;20040;-53
2022/03/13 08:00:51;;;;;;;15.77;9.35;;;8.60;83.20;;;;;;5070479;28;20044;-53
2022/03/13 08:03:28;;;;;;;14.73;9.52;;;7.40;82.50;;;;;;5070282;28;20080;-54
2022/03/13 08:05:54;;;;;;;13.30;9.38;;;7.70;82.40;;;;;;5069993;28;20129;-55
2022/03/13 08:08:20;;;;;;;15.43;9.75;;;7.90;82.60;;;;;;5070138;28;20494;-54
2022/03/13 08:10:45;;;;;;;15.82;9.77;;;8.60;82.40;;;;;;5069615;28;20820;-53
2022/03/13 08:13:11;;;;;;;12.73;9.20;;;8.20;81.30;;;;;;5069976;28;20055;-54
2022/03/13 08:15:38;;;;;;;16.63;9.50;;;8.70;81.50;;;;;;5069646;28;20052;-51
2022/03/13 08:18:04;;;;;;;15.13;9.73;;;8.50;80.60;;;;;;5069814;28;20036;-51
2022/03/13 08:20:31;;;;;;;14.77;9.80;;;8.90;80.10;;;;;;5069859;28;20051;-54
2022/03/13 08:22:57;;;;;;;14.57;8.70;;;9.70;79.80;;;;;;5069475;28;20040;-51
2022/03/13 08:25:24;;;;;;;12.35;8.52;;;10.20;78.30;;;;;;5070075;28;20047;-53
2022/03/13 08:27:49;;;;;;;17.05;10.35;;;10.50;76.80;;;;;;5069482;28;20045;-54
2022/03/13 08:30:16;;;;;;;15.80;9.40;;;10.40;75.80;;;;;;5070000;28;20036;-52
2022/03/13 08:32:42;;;;;;;12.55;8.88;;;10.90;75.10;;;;;;5069492;28;20047;-54
2022/03/13 08:35:08;;;;;;;13.23;9.30;;;10.60;73.60;;;;;;5069140;28;20041;-54
2022/03/13 08:37:35;;;;;;;15.20;9.48;;;10.90;73.20;;;;;;5069589;28;20037;-53
2022/03/13 08:40:01;;;;;;;14.00;9.60;;;10.80;72.10;;;;;;5068960;28;20406;-54
2022/03/13 08:42:27;;;;;;;15.43;9.60;;;10.70;72.30;;;;;;5051089;28;20466;-53
2022/03/13 08:44:54;;;;;;;12.43;8.40;;;10.80;72.70;;;;;;5068653;28;20156;-55
2022/03/13 08:47:20;;;;;;;20.17;10.18;;;11.40;73.20;;;;;;5069208;28;20127;-53
2022/03/13 08:49:46;;;;;;;14.02;8.75;;;12.00;72.20;;;;;;5069224;28;20094;-53
2022/03/13 08:52:11;;;;;;;13.80;8.80;;;12.60;71.10;;;;;;5068922;28;20048;-54
2022/03/13 08:54:37;;;;;;;13.25;9.13;;;13.20;69.90;;;;;;5069612;28;20044;-55
2022/03/13 08:57:03;;;;;;;14.88;8.55;;;13.80;68.50;;;;;;5069230;28;20040;-55
2022/03/13 08:59:32;;;;;;;14.38;9.23;;;14.60;67.00;;;;;;5069322;28;20047;-56
2022/03/13 09:01:58;;;;;;;13.50;8.77;;;15.50;65.40;;;;;;5068837;28;20048;-55
2022/03/13 09:04:23;;;;;;;15.55;8.98;;;15.90;64.10;;;;;;5069216;28;20043;-55
2022/03/13 09:06:49;;;;;;;13.93;9.15;;;15.90;63.20;;;;;;5069207;28;20489;-54
2022/03/13 09:09:15;;;;;;;12.95;8.52;;;15.80;63.00;;;;;;5069121;28;20040;-56
2022/03/13 09:11:41;;;;;;;12.18;9.48;;;15.70;62.90;;;;;;5069324;28;20442;-56
2022/03/13 09:14:06;;;;;;;13.40;9.15;;;15.90;61.50;;;;;;5068781;28;20040;-55
2022/03/13 09:16:41;;;;;;;11.18;8.32;;;16.40;61.70;;;;;;5069325;28;20048;-56
2022/03/13 09:19:07;;;;;;;11.80;8.90;;;16.90;60.40;;;;;;5068953;28;20075;-54
2022/03/13 09:21:34;;;;;;;13.15;8.68;;;17.40;59.20;;;;;;5069067;28;20051;-55
2022/03/13 09:24:01;;;;;;;12.35;7.93;;;17.60;57.30;;;;;;5068718;28;20036;-56
2022/03/13 09:26:27;;;;;;;13.00;9.13;;;18.00;56.10;;;;;;5069141;28;20067;-55
2022/03/13 09:28:53;;;;;;;22.77;8.38;;;18.50;56.80;;;;;;5072247;28;20036;-56
2022/03/13 09:31:18;;;;;;;14.00;9.43;;;18.70;55.70;;;;;;5072921;28;20044;-55
2022/03/13 09:33:44;;;;;;;12.02;9.38;;;18.80;55.20;;;;;;5072619;28;20058;-56
2022/03/13 09:36:10;;;;;;;13.13;8.95;;;18.90;55.00;;;;;;5072453;28;20044;-55
2022/03/13 09:38:35;;;;;;;14.05;9.25;;;19.00;54.50;;;;;;5072942;28;20112;-56
2022/03/13 09:41:01;;;;;;;13.55;9.15;;;19.50;54.00;;;;;;5037355;28;20072;-57
2022/03/13 09:43:27;;;;;;;12.77;8.65;;;19.80;52.60;;;;;;5072514;28;20052;-55
2022/03/13 09:45:52;;;;;;;14.68;9.57;;;19.80;51.90;;;;;;5072345;28;20071;-56
2022/03/13 09:48:21;;;;;;;11.55;8.40;;;19.80;51.50;;;;;;5054504;28;20050;-57
2022/03/13 09:50:46;;;;;;;12.68;8.77;;;20.00;51.00;;;;;;5072777;28;20114;-56
2022/03/13 09:53:12;;;;;;;13.90;9.98;;;20.10;50.40;;;;;;5072113;28;20491;-57
2022/03/13 09:55:39;;;;;;;13.48;9.75;;;20.20;49.60;;;;;;5072735;28;20481;-57
2022/03/13 09:58:08;;;;;;;12.50;8.30;;;20.30;49.50;;;;;;5072263;28;20045;-56
2022/03/13 10:00:36;;;;;;;13.23;10.60;;;20.20;49.40;;;;;;5072275;28;20044;-57
2022/03/13 10:03:05;;;;;;;11.88;8.80;;;19.80;49.60;;;;;;5072145;28;20040;-56
2022/03/13 10:05:44;;;;;;;13.55;8.90;;;19.50;50.00;;;;;;5072480;28;20556;-57
2022/03/13 10:08:10;;;;;;;13.55;10.15;;;18.90;50.00;;;;;;5071731;28;20070;-53
2022/03/13 10:10:49;;;;;;;12.57;9.00;;;18.30;51.70;;;;;;5072359;28;20040;-57
2022/03/13 10:13:32;;;;;;;11.10;8.95;;;17.80;51.10;;;;;;5072064;28;20041;-56
2022/03/13 10:15:58;;;;;;;15.40;10.18;;;17.70;52.60;;;;;;5072010;28;20044;-57
2022/03/13 10:18:28;;;;;;;12.65;9.27;;;17.80;52.60;;;;;;5070911;28;20395;-57
2022/03/13 10:20:55;;;;;;;13.38;9.20;;;17.90;52.30;;;;;;5052925;28;20076;-57
2022/03/13 10:23:22;;;;;;;11.32;8.43;;;17.90;52.60;;;;;;5070635;28;20044;-56
2022/03/13 10:25:52;;;;;;;12.93;9.13;;;18.00;52.20;;;;;;5070808;28;20036;-56
2022/03/13 10:28:25;;;;;;;13.48;9.35;;;18.20;51.60;;;;;;5052414;28;20051;-57
2022/03/13 10:30:59;;;;;;;12.90;9.45;;;18.00;50.60;;;;;;5071047;28;20076;-57
2022/03/13 10:33:26;;;;;;;12.93;9.63;;;17.80;51.30;;;;;;5070727;28;20048;-55
2022/03/13 10:36:15;;;;;;;15.20;9.20;;;17.60;51.60;;;;;;5070608;28;20106;-55
2022/03/13 10:38:42;;;;;;;12.43;9.40;;;17.50;51.10;;;;;;5070006;28;20051;-56
2022/03/13 10:41:12;;;;;;;14.77;10.25;;;17.30;52.10;;;;;;5069854;28;20051;-56
2022/03/13 10:43:54;;;;;;;15.15;10.00;;;17.30;51.60;;;;;;5070408;28;20442;-57
2022/03/13 10:46:30;;;;;;;14.35;9.68;;;17.30;50.70;;;;;;5070226;28;20057;-55
2022/03/13 10:49:00;;;;;;;15.15;9.55;;;17.40;51.20;;;;;;5070150;28;20044;-56
2022/03/13 10:51:36;;;;;;;14.80;10.63;;;17.80;50.80;;;;;;5069882;28;20054;-56
2022/03/13 10:54:03;;;;;;;14.32;10.13;;;18.00;50.00;;;;;;5070217;28;20051;-56
2022/03/13 10:56:29;;;;;;;14.40;10.45;;;17.90;50.50;;;;;;5070057;28;20351;-55
2022/03/13 10:58:56;;;;;;;17.73;9.73;;;17.80;50.80;;;;;;5070349;28;20167;-56
2022/03/13 11:01:23;;;;;;;14.80;10.27;;;17.70;50.40;;;;;;5069557;28;20111;-55
2022/03/13 11:04:06;;;;;;;15.20;9.45;;;17.60;50.00;;;;;;5070173;28;20080;-56
2022/03/13 11:06:32;;;;;;;14.18;9.45;;;17.50;49.30;;;;;;5069888;28;20028;-56
2022/03/13 11:09:00;;;;;;;14.73;10.27;;;17.20;50.30;;;;;;5070166;28;20028;-54
2022/03/13 11:11:27;;;;;;;14.55;9.85;;;17.10;51.30;;;;;;5070075;28;20044;-55
2022/03/13 11:13:59;;;;;;;19.80;10.57;;;16.60;50.50;;;;;;5069608;28;20661;-55
2022/03/13 11:16:32;;;;;;;26.55;10.40;;;16.50;51.70;;;;;;5051806;28;20510;-55
2022/03/13 11:19:04;;;;;;;12.57;10.25;;;15.80;52.50;;;;;;5070048;28;20033;-55
2022/03/13 11:21:30;;;;;;;;;;;15.40;52.90;;;;;;5070087;28;20052;-56
2022/03/13 11:23:57;;;;;;;14.30;9.80;;;15.20;53.40;;;;;;5069691;28;20465;-56
2022/03/13 11:26:25;;;;;;;14.30;9.98;;;15.00;54.20;;;;;;5069467;28;20501;-54
2022/03/13 11:28:53;;;;;;;13.10;8.90;;;15.00;55.10;;;;;;5069949;28;20056;-54
2022/03/13 11:31:29;;;;;;;13.27;9.75;;;14.90;54.80;;;;;;5051933;28;20071;-56
2022/03/13 11:34:16;;;;;;;19.02;9.80;;;15.30;54.50;;;;;;5069731;28;20390;-54
2022/03/13 11:36:49;;;;;;;19.35;10.55;;;15.40;54.80;;;;;;5069482;28;20517;-55
2022/03/13 11:39:28;;;;;;;16.77;10.10;;;15.00;54.50;;;;;;5069499;28;20501;-56
2022/03/13 11:41:54;;;;;;;13.27;9.60;;;15.00;54.10;;;;;;5070013;28;20433;-55
2022/03/13 11:44:23;;;;;;;15.95;9.68;;;15.00;54.50;;;;;;5069660;28;20048;-56
2022/03/13 11:46:57;;;;;;;14.43;9.75;;;15.10;54.00;;;;;;5070395;28;20080;-55
2022/03/13 11:49:26;;;;;;;14.30;9.93;;;15.10;53.70;;;;;;5070293;28;20086;-56
2022/03/13 11:52:12;;;;;;;15.13;11.20;;;15.20;54.30;;;;;;5070336;28;20044;-55
2022/03/13 11:54:46;;;;;;;14.10;9.18;;;15.30;54.20;;;;;;5070273;28;20123;-56
2022/03/13 11:57:14;;;;;;;13.50;9.27;;;15.40;54.40;;;;;;5070679;28;20109;-55
2022/03/13 11:59:39;;;;;;;14.88;10.50;;;15.40;53.70;;;;;;5070281;28;20043;-54
2022/03/13 12:02:10;;;;;;;14.27;10.18;;;15.30;53.10;;;;;;5070283;28;20420;-56
2022/03/13 12:04:36;;;;;;;12.27;8.57;;;15.30;53.10;;;;;;5068593;28;20041;-56
2022/03/13 12:07:06;;;;;;;13.93;9.80;;;15.30;54.00;;;;;;5069160;28;20106;-55
2022/03/13 12:09:45;;;;;;;20.75;10.07;;;15.40;54.30;;;;;;5069015;28;20044;-56
2022/03/13 12:12:14;;;;;;;14.70;8.98;;;15.40;52.70;;;;;;5069029;28;20071;-54
2022/03/13 12:15:04;;;;;;;13.00;8.82;;;15.40;53.80;;;;;;5068281;28;20079;-55
2022/03/13 12:17:43;;;;;;;14.73;9.93;;;15.30;53.90;;;;;;5050601;28;20063;-55
2022/03/13 12:20:19;;;;;;;14.48;9.80;;;15.40;54.10;;;;;;5068909;28;20035;-56
2022/03/13 12:22:53;;;;;;;15.85;10.15;;;15.50;53.90;;;;;;5068066;28;20052;-55
2022/03/13 12:25:30;;;;;;;15.43;10.02;;;15.50;53.30;;;;;;5068653;28;20072;-55
2022/03/13 12:27:57;;;;;;;15.38;9.70;;;15.50;53.50;;;;;;5068367;28;20090;-55
2022/03/13 12:30:32;;;;;;;14.50;9.70;;;15.50;53.30;;;;;;5050197;28;20048;-55
2022/03/13 12:33:05;;;;;;;12.70;9.02;;;15.50;53.20;;;;;;5050591;28;20046;-55
2022/03/13 12:35:32;;;;;;;19.10;10.02;;;15.90;53.80;;;;;;5068395;28;20359;-55
2022/03/13 12:38:01;;;;;;;14.18;9.85;;;15.50;53.20;;;;;;5067961;28;20765;-56
2022/03/13 12:40:31;;;;;;;17.75;9.65;;;15.20;53.00;;;;;;5068216;28;20102;-56